sensor_id;sensor_type;location;lat;lon;timestamp;pressure;altitude;pressure_sealevel;temperature;humidity
59272;BME280;45043;51.068;7.026;2023-10-09T00:01:07;100952.47;;;12.38;70.78
59272;BME280;45043;51.068;7.026;2023-10-09T00:04:16;100952.28;;;12.40;70.52
59272;BME280;45043;51.068;7.026;2023-10-09T00:07:17;100961.53;;;12.44;70.35
59272;BME280;45043;51.068;7.026;2023-10-09T00:10:18;100950.88;;;12.44;70.49
59272;BME280;45043;51.068;7.026;2023-10-09T00:13:21;100960.50;;;12.45;69.87
59272;BME280;45043;51.068;7.026;2023-10-09T00:16:29;100954.78;;;12.48;70.01
59272;BME280;45043;51.068;7.026;2023-10-09T00:19:37;100953.75;;;12.49;69.92
59272;BME280;45043;51.068;7.026;2023-10-09T00:22:38;100951.91;;;12.50;69.62
59272;BME280;45043;51.068;7.026;2023-10-09T00:25:50;100951.72;;;12.51;69.51
59272;BME280;45043;51.068;7.026;2023-10-09T00:29:09;100953.56;;;12.51;69.24
59272;BME280;45043;51.068;7.026;2023-10-09T00:32:15;100947.44;;;12.50;69.30
59272;BME280;45043;51.068;7.026;2023-10-09T00:35:23;100937.97;;;12.48;68.94
59272;BME280;45043;51.068;7.026;2023-10-09T00:38:42;100943.50;;;12.46;69.05
59272;BME280;45043;51.068;7.026;2023-10-09T00:41:47;100936.13;;;12.48;69.10
59272;BME280;45043;51.068;7.026;2023-10-09T00:44:47;100936.34;;;12.53;68.58
59272;BME280;45043;51.068;7.026;2023-10-09T00:47:51;100937.38;;;12.52;68.05
59272;BME280;45043;51.068;7.026;2023-10-09T00:50:51;100931.22;;;12.52;68.01
59272;BME280;45043;51.068;7.026;2023-10-09T00:53:57;100923.63;;;12.49;67.67
59272;BME280;45043;51.068;7.026;2023-10-09T00:57:07;100923.03;;;12.47;67.82
59272;BME280;45043;51.068;7.026;2023-10-09T01:00:08;100920.34;;;12.47;67.68
59272;BME280;45043;51.068;7.026;2023-10-09T01:03:32;100912.53;;;12.45;67.45
59272;BME280;45043;51.068;7.026;2023-10-09T01:06:34;100908.84;;;12.46;67.73
59272;BME280;45043;51.068;7.026;2023-10-09T01:09:45;100898.19;;;12.46;66.79
59272;BME280;45043;51.068;7.026;2023-10-09T01:12:45;100902.31;;;12.49;67.28
59272;BME280;45043;51.068;7.026;2023-10-09T01:15:48;100909.69;;;12.47;66.85
59272;BME280;45043;51.068;7.026;2023-10-09T01:18:53;100905.16;;;12.40;66.85
59272;BME280;45043;51.068;7.026;2023-10-09T01:21:57;100900.00;;;12.39;66.83
59272;BME280;45043;51.068;7.026;2023-10-09T01:25:05;100886.69;;;12.39;66.44
59272;BME280;45043;51.068;7.026;2023-10-09T01:28:07;100887.09;;;12.36;67.11
59272;BME280;45043;51.068;7.026;2023-10-09T01:31:08;100886.28;;;12.35;66.79
59272;BME280;45043;51.068;7.026;2023-10-09T01:34:09;100889.13;;;12.34;66.56
59272;BME280;45043;51.068;7.026;2023-10-09T01:37:12;100870.88;;;12.31;66.51
59272;BME280;45043;51.068;7.026;2023-10-09T01:40:19;100873.91;;;12.28;66.88
59272;BME280;45043;51.068;7.026;2023-10-09T01:43:36;100871.84;;;12.23;66.47
59272;BME280;45043;51.068;7.026;2023-10-09T01:46:39;100864.47;;;12.18;66.67
59272;BME280;45043;51.068;7.026;2023-10-09T01:49:40;100868.59;;;12.21;66.58
59272;BME280;45043;51.068;7.026;2023-10-09T01:52:44;100861.84;;;12.25;66.75
59272;BME280;45043;51.068;7.026;2023-10-09T01:55:46;100864.94;;;12.29;66.66
59272;BME280;45043;51.068;7.026;2023-10-09T01:58:47;100860.41;;;12.29;66.41
59272;BME280;45043;51.068;7.026;2023-10-09T02:01:49;100858.78;;;12.28;66.58
59272;BME280;45043;51.068;7.026;2023-10-09T02:04:50;100866.56;;;12.30;66.37
59272;BME280;45043;51.068;7.026;2023-10-09T02:07:51;100869.41;;;12.22;66.47
59272;BME280;45043;51.068;7.026;2023-10-09T02:10:53;100877.41;;;12.22;66.73
59272;BME280;45043;51.068;7.026;2023-10-09T02:13:57;100879.66;;;12.25;66.61
59272;BME280;45043;51.068;7.026;2023-10-09T02:16:58;100886.25;;;12.29;66.48
59272;BME280;45043;51.068;7.026;2023-10-09T02:20:10;100882.16;;;12.33;66.39
59272;BME280;45043;51.068;7.026;2023-10-09T02:23:19;100884.22;;;12.37;66.33
59272;BME280;45043;51.068;7.026;2023-10-09T02:26:25;100888.94;;;12.42;66.34
59272;BME280;45043;51.068;7.026;2023-10-09T02:29:26;100889.19;;;12.47;66.15
59272;BME280;45043;51.068;7.026;2023-10-09T02:32:27;100881.00;;;12.49;65.77
59272;BME280;45043;51.068;7.026;2023-10-09T02:35:30;100876.91;;;12.53;65.67
59272;BME280;45043;51.068;7.026;2023-10-09T02:38:43;100875.69;;;12.55;65.80
59272;BME280;45043;51.068;7.026;2023-10-09T02:41:44;100871.59;;;12.59;65.43
59272;BME280;45043;51.068;7.026;2023-10-09T02:44:50;100874.47;;;12.64;65.33
59272;BME280;45043;51.068;7.026;2023-10-09T02:47:53;100873.88;;;12.62;65.21
59272;BME280;45043;51.068;7.026;2023-10-09T02:50:56;100866.28;;;12.59;65.25
59272;BME280;45043;51.068;7.026;2023-10-09T02:54:00;100865.63;;;12.57;65.04
59272;BME280;45043;51.068;7.026;2023-10-09T02:57:08;100861.56;;;12.55;65.50
59272;BME280;45043;51.068;7.026;2023-10-09T03:00:10;100865.03;;;12.55;65.16
59272;BME280;45043;51.068;7.026;2023-10-09T03:03:19;100857.63;;;12.57;65.28
59272;BME280;45043;51.068;7.026;2023-10-09T03:06:22;100869.97;;;12.58;64.70
59272;BME280;45043;51.068;7.026;2023-10-09T03:09:31;100869.56;;;12.61;64.83
59272;BME280;45043;51.068;7.026;2023-10-09T03:12:33;100863.41;;;12.61;65.15
59272;BME280;45043;51.068;7.026;2023-10-09T03:15:33;100866.69;;;12.63;65.03
59272;BME280;45043;51.068;7.026;2023-10-09T03:18:37;100852.72;;;12.61;65.26
59272;BME280;45043;51.068;7.026;2023-10-09T03:21:38;100860.94;;;12.59;65.06
59272;BME280;45043;51.068;7.026;2023-10-09T03:24:39;100854.38;;;12.55;64.94
59272;BME280;45043;51.068;7.026;2023-10-09T03:27:46;100856.81;;;12.50;65.02
59272;BME280;45043;51.068;7.026;2023-10-09T03:30:48;100850.84;;;12.41;65.39
59272;BME280;45043;51.068;7.026;2023-10-09T03:33:49;100859.03;;;12.40;65.32
59272;BME280;45043;51.068;7.026;2023-10-09T03:36:50;100845.31;;;12.43;65.29
59272;BME280;45043;51.068;7.026;2023-10-09T03:40:01;100846.97;;;12.44;65.34
59272;BME280;45043;51.068;7.026;2023-10-09T03:43:02;100840.00;;;12.43;65.17
59272;BME280;45043;51.068;7.026;2023-10-09T03:46:05;100841.63;;;12.44;65.43
59272;BME280;45043;51.068;7.026;2023-10-09T03:49:14;100836.25;;;12.37;65.27
59272;BME280;45043;51.068;7.026;2023-10-09T03:52:23;100842.81;;;12.35;65.20
59272;BME280;45043;51.068;7.026;2023-10-09T03:55:28;100844.88;;;12.33;65.61
59272;BME280;45043;51.068;7.026;2023-10-09T03:58:29;100844.47;;;12.36;65.29
59272;BME280;45043;51.068;7.026;2023-10-09T04:01:34;100842.63;;;12.36;65.18
59272;BME280;45043;51.068;7.026;2023-10-09T04:04:41;100839.31;;;12.34;65.24
59272;BME280;45043;51.068;7.026;2023-10-09T04:07:47;100833.97;;;12.28;65.31
59272;BME280;45043;51.068;7.026;2023-10-09T04:10:49;100831.31;;;12.28;65.08
59272;BME280;45043;51.068;7.026;2023-10-09T04:13:54;100824.16;;;12.28;65.60
59272;BME280;45043;51.068;7.026;2023-10-09T04:16:56;100816.97;;;12.29;66.13
59272;BME280;45043;51.068;7.026;2023-10-09T04:20:06;100814.06;;;12.24;65.61
59272;BME280;45043;51.068;7.026;2023-10-09T04:23:19;100816.53;;;12.18;66.22
59272;BME280;45043;51.068;7.026;2023-10-09T04:26:36;100820.25;;;12.31;66.03
59272;BME280;45043;51.068;7.026;2023-10-09T04:29:38;100814.13;;;12.37;65.77
59272;BME280;45043;51.068;7.026;2023-10-09T04:32:40;100815.81;;;12.51;65.87
59272;BME280;45043;51.068;7.026;2023-10-09T04:35:41;100811.13;;;12.66;65.39
59272;BME280;45043;51.068;7.026;2023-10-09T04:38:51;100818.34;;;12.73;65.13
59272;BME280;45043;51.068;7.026;2023-10-09T04:42:04;100822.28;;;12.77;64.81
59272;BME280;45043;51.068;7.026;2023-10-09T04:45:36;100827.81;;;12.82;65.36
59272;BME280;45043;51.068;7.026;2023-10-09T04:48:56;100820.84;;;12.87;64.80
59272;BME280;45043;51.068;7.026;2023-10-09T04:52:16;100829.06;;;12.99;64.49
59272;BME280;45043;51.068;7.026;2023-10-09T04:55:41;100819.66;;;13.10;64.36
59272;BME280;45043;51.068;7.026;2023-10-09T04:58:44;100823.31;;;13.16;64.21
59272;BME280;45043;51.068;7.026;2023-10-09T05:01:47;100808.53;;;13.20;63.87
59272;BME280;45043;51.068;7.026;2023-10-09T05:04:58;100814.09;;;13.25;63.36
59272;BME280;45043;51.068;7.026;2023-10-09T05:08:37;100816.97;;;13.30;63.62
59272;BME280;45043;51.068;7.026;2023-10-09T05:11:47;100807.72;;;13.39;62.79
59272;BME280;45043;51.068;7.026;2023-10-09T05:14:53;100799.91;;;13.31;63.06
59272;BME280;45043;51.068;7.026;2023-10-09T05:18:10;100797.06;;;13.12;63.01
59272;BME280;45043;51.068;7.026;2023-10-09T05:21:16;100802.41;;;13.06;63.56
59272;BME280;45043;51.068;7.026;2023-10-09T05:24:37;100798.31;;;13.10;63.32
59272;BME280;45043;51.068;7.026;2023-10-09T05:27:47;100801.16;;;13.08;63.71
59272;BME280;45043;51.068;7.026;2023-10-09T05:30:51;100800.75;;;13.11;63.37
59272;BME280;45043;51.068;7.026;2023-10-09T05:34:03;100808.34;;;13.14;63.28
59272;BME280;45043;51.068;7.026;2023-10-09T05:37:07;100796.66;;;13.16;63.07
59272;BME280;45043;51.068;7.026;2023-10-09T05:40:34;100795.00;;;13.14;63.05
59272;BME280;45043;51.068;7.026;2023-10-09T05:43:36;100805.69;;;13.14;63.55
59272;BME280;45043;51.068;7.026;2023-10-09T05:46:56;100813.69;;;13.08;63.13
59272;BME280;45043;51.068;7.026;2023-10-09T05:50:40;100818.19;;;13.01;63.47
59272;BME280;45043;51.068;7.026;2023-10-09T05:54:00;100831.94;;;12.98;63.58
59272;BME280;45043;51.068;7.026;2023-10-09T05:57:20;100838.91;;;12.92;63.70
59272;BME280;45043;51.068;7.026;2023-10-09T06:00:39;100835.59;;;12.83;64.31
59272;BME280;45043;51.068;7.026;2023-10-09T06:03:58;100832.75;;;12.85;63.87
59272;BME280;45043;51.068;7.026;2023-10-09T06:07:15;100835.59;;;12.90;64.32
59272;BME280;45043;51.068;7.026;2023-10-09T06:10:23;100835.22;;;12.93;64.09
59272;BME280;45043;51.068;7.026;2023-10-09T06:13:39;100833.59;;;12.99;63.99
59272;BME280;45043;51.068;7.026;2023-10-09T06:16:47;100838.06;;;12.98;64.07
59272;BME280;45043;51.068;7.026;2023-10-09T06:20:15;100840.16;;;13.03;64.00
59272;BME280;45043;51.068;7.026;2023-10-09T06:23:34;100835.63;;;13.03;64.02
59272;BME280;45043;51.068;7.026;2023-10-09T06:26:53;100842.19;;;13.07;63.92
59272;BME280;45043;51.068;7.026;2023-10-09T06:30:01;100847.34;;;13.16;63.90
59272;BME280;45043;51.068;7.026;2023-10-09T06:33:15;100858.22;;;13.14;63.82
59272;BME280;45043;51.068;7.026;2023-10-09T06:36:30;100873.00;;;13.10;63.83
59272;BME280;45043;51.068;7.026;2023-10-09T06:39:34;100877.72;;;13.14;63.95
59272;BME280;45043;51.068;7.026;2023-10-09T06:42:55;100881.63;;;13.25;63.57
59272;BME280;45043;51.068;7.026;2023-10-09T06:45:57;100890.88;;;13.36;63.59
59272;BME280;45043;51.068;7.026;2023-10-09T06:49:17;100886.16;;;13.51;63.17
59272;BME280;45043;51.068;7.026;2023-10-09T06:52:30;100893.53;;;13.69;62.72
59272;BME280;45043;51.068;7.026;2023-10-09T06:55:50;100904.63;;;13.86;62.04
59272;BME280;45043;51.068;7.026;2023-10-09T06:58:52;100915.31;;;13.93;61.88
59272;BME280;45043;51.068;7.026;2023-10-09T07:01:56;100912.00;;;13.97;61.53
59272;BME280;45043;51.068;7.026;2023-10-09T07:05:09;100909.94;;;13.99;61.50
59272;BME280;45043;51.068;7.026;2023-10-09T07:08:11;100905.84;;;13.97;61.15
59272;BME280;45043;51.068;7.026;2023-10-09T07:11:36;100901.31;;;13.97;61.29
59272;BME280;45043;51.068;7.026;2023-10-09T07:14:40;100901.13;;;13.99;61.26
59272;BME280;45043;51.068;7.026;2023-10-09T07:17:40;100904.63;;;13.99;61.20
59272;BME280;45043;51.068;7.026;2023-10-09T07:20:41;100915.06;;;14.01;61.19
59272;BME280;45043;51.068;7.026;2023-10-09T07:23:59;100901.53;;;14.02;61.16
59272;BME280;45043;51.068;7.026;2023-10-09T07:27:14;100897.59;;;14.12;61.17
59272;BME280;45043;51.068;7.026;2023-10-09T07:30:17;100920.19;;;14.22;60.82
59272;BME280;45043;51.068;7.026;2023-10-09T07:33:30;100919.13;;;14.30;60.55
59272;BME280;45043;51.068;7.026;2023-10-09T07:36:50;100900.78;;;14.40;60.23
59272;BME280;45043;51.068;7.026;2023-10-09T07:39:57;100903.63;;;14.52;60.46
59272;BME280;45043;51.068;7.026;2023-10-09T07:42:58;100906.88;;;14.61;60.44
59272;BME280;45043;51.068;7.026;2023-10-09T07:46:06;100902.75;;;14.65;60.15
59272;BME280;45043;51.068;7.026;2023-10-09T07:49:26;100928.88;;;14.69;60.29
59272;BME280;45043;51.068;7.026;2023-10-09T07:52:28;100918.78;;;14.71;60.65
59272;BME280;45043;51.068;7.026;2023-10-09T07:55:29;100928.44;;;14.72;60.29
59272;BME280;45043;51.068;7.026;2023-10-09T07:58:40;100921.84;;;14.75;60.05
59272;BME280;45043;51.068;7.026;2023-10-09T08:01:49;100928.25;;;14.74;60.77
59272;BME280;45043;51.068;7.026;2023-10-09T08:04:53;100917.97;;;14.71;60.85
59272;BME280;45043;51.068;7.026;2023-10-09T08:07:54;100931.34;;;14.71;60.87
59272;BME280;45043;51.068;7.026;2023-10-09T08:10:58;100917.75;;;14.72;60.61
59272;BME280;45043;51.068;7.026;2023-10-09T08:14:18;100912.78;;;14.76;60.71
59272;BME280;45043;51.068;7.026;2023-10-09T08:17:33;100904.75;;;14.76;60.62
59272;BME280;45043;51.068;7.026;2023-10-09T08:20:38;100895.28;;;14.80;61.37
59272;BME280;45043;51.068;7.026;2023-10-09T08:23:57;100906.84;;;14.74;61.14
59272;BME280;45043;51.068;7.026;2023-10-09T08:27:05;100900.72;;;14.67;61.07
59272;BME280;45043;51.068;7.026;2023-10-09T08:30:25;100910.59;;;14.59;61.57
59272;BME280;45043;51.068;7.026;2023-10-09T08:33:26;100906.69;;;14.55;61.46
59272;BME280;45043;51.068;7.026;2023-10-09T08:36:28;100894.78;;;14.51;61.38
59272;BME280;45043;51.068;7.026;2023-10-09T08:39:29;100877.31;;;14.49;61.23
59272;BME280;45043;51.068;7.026;2023-10-09T08:42:34;100910.59;;;14.53;61.14
59272;BME280;45043;51.068;7.026;2023-10-09T08:45:38;100966.34;;;14.63;61.09
59272;BME280;45043;51.068;7.026;2023-10-09T08:48:40;100964.06;;;14.73;60.91
59272;BME280;45043;51.068;7.026;2023-10-09T08:51:42;100970.38;;;14.85;60.67
59272;BME280;45043;51.068;7.026;2023-10-09T08:54:44;100985.75;;;14.96;60.19
59272;BME280;45043;51.068;7.026;2023-10-09T08:57:46;100978.13;;;15.00;60.21
59272;BME280;45043;51.068;7.026;2023-10-09T09:00:47;100954.84;;;15.00;60.19
59272;BME280;45043;51.068;7.026;2023-10-09T09:03:49;100964.75;;;15.00;60.35
59272;BME280;45043;51.068;7.026;2023-10-09T09:06:52;100930.53;;;15.02;60.04
59272;BME280;45043;51.068;7.026;2023-10-09T09:09:57;100884.44;;;15.06;59.27
59272;BME280;45043;51.068;7.026;2023-10-09T09:13:04;100878.63;;;15.10;59.32
59272;BME280;45043;51.068;7.026;2023-10-09T09:16:13;100886.06;;;15.08;59.14
59272;BME280;45043;51.068;7.026;2023-10-09T09:19:14;100876.41;;;15.06;59.14
59272;BME280;45043;51.068;7.026;2023-10-09T09:22:18;100874.50;;;15.14;59.20
59272;BME280;45043;51.068;7.026;2023-10-09T09:25:20;100884.31;;;15.20;59.30
59272;BME280;45043;51.068;7.026;2023-10-09T09:28:24;100860.59;;;15.30;59.24
59272;BME280;45043;51.068;7.026;2023-10-09T09:31:27;100856.84;;;15.31;58.51
59272;BME280;45043;51.068;7.026;2023-10-09T09:34:28;100855.84;;;15.32;58.81
59272;BME280;45043;51.068;7.026;2023-10-09T09:37:32;100857.84;;;15.37;58.37
59272;BME280;45043;51.068;7.026;2023-10-09T09:40:55;100838.75;;;15.33;58.20
59272;BME280;45043;51.068;7.026;2023-10-09T09:43:57;100827.31;;;15.44;57.66
59272;BME280;45043;51.068;7.026;2023-10-09T09:47:02;100848.03;;;15.56;57.46
59272;BME280;45043;51.068;7.026;2023-10-09T09:50:07;100846.94;;;15.63;57.31
59272;BME280;45043;51.068;7.026;2023-10-09T09:53:23;100849.69;;;15.75;56.66
59272;BME280;45043;51.068;7.026;2023-10-09T09:56:25;100860.72;;;15.85;56.85
59272;BME280;45043;51.068;7.026;2023-10-09T09:59:29;100863.03;;;16.00;56.48
59272;BME280;45043;51.068;7.026;2023-10-09T10:02:35;100867.28;;;16.08;56.05
59272;BME280;45043;51.068;7.026;2023-10-09T10:05:41;100862.97;;;16.07;55.92
59272;BME280;45043;51.068;7.026;2023-10-09T10:08:43;100851.06;;;16.02;55.39
59272;BME280;45043;51.068;7.026;2023-10-09T10:11:45;100845.72;;;16.02;55.43
59272;BME280;45043;51.068;7.026;2023-10-09T10:14:57;100863.19;;;16.05;55.46
59272;BME280;45043;51.068;7.026;2023-10-09T10:18:15;100865.47;;;16.20;55.46
59272;BME280;45043;51.068;7.026;2023-10-09T10:21:19;100871.47;;;16.22;54.91
59272;BME280;45043;51.068;7.026;2023-10-09T10:27:35;100853.72;;;16.21;54.75
59272;BME280;45043;51.068;7.026;2023-10-09T10:30:52;100853.19;;;16.31;54.73
59272;BME280;45043;51.068;7.026;2023-10-09T10:36:55;100850.84;;;16.41;54.07
59272;BME280;45043;51.068;7.026;2023-10-09T10:39:59;100851.78;;;16.46;54.52
59272;BME280;45043;51.068;7.026;2023-10-09T10:42:59;100858.84;;;16.59;54.17
59272;BME280;45043;51.068;7.026;2023-10-09T10:46:32;100864.22;;;16.59;53.93
59272;BME280;45043;51.068;7.026;2023-10-09T10:49:43;100867.84;;;16.65;53.50
59272;BME280;45043;51.068;7.026;2023-10-09T10:52:44;100869.00;;;16.69;53.43
59272;BME280;45043;51.068;7.026;2023-10-09T10:55:58;100869.50;;;16.66;53.29
59272;BME280;45043;51.068;7.026;2023-10-09T10:59:39;100877.22;;;16.74;53.49
59272;BME280;45043;51.068;7.026;2023-10-09T11:02:43;100890.31;;;16.82;52.75
59272;BME280;45043;51.068;7.026;2023-10-09T11:05:45;100887.75;;;16.87;52.55
59272;BME280;45043;51.068;7.026;2023-10-09T11:08:51;100893.63;;;16.96;52.38
59272;BME280;45043;51.068;7.026;2023-10-09T11:11:55;100891.66;;;17.03;52.43
59272;BME280;45043;51.068;7.026;2023-10-09T11:15:13;100878.72;;;17.12;52.04
59272;BME280;45043;51.068;7.026;2023-10-09T11:18:23;100879.59;;;17.24;51.76
59272;BME280;45043;51.068;7.026;2023-10-09T11:21:28;100872.69;;;17.28;51.76
59272;BME280;45043;51.068;7.026;2023-10-09T11:24:33;100878.31;;;17.27;50.72
59272;BME280;45043;51.068;7.026;2023-10-09T11:27:35;100881.59;;;17.29;50.64
59272;BME280;45043;51.068;7.026;2023-10-09T11:30:40;100867.47;;;17.33;50.14
59272;BME280;45043;51.068;7.026;2023-10-09T11:33:46;100878.31;;;17.38;50.08
59272;BME280;45043;51.068;7.026;2023-10-09T11:36:49;100874.00;;;17.37;50.14
59272;BME280;45043;51.068;7.026;2023-10-09T11:39:57;100875.06;;;17.36;49.69
59272;BME280;45043;51.068;7.026;2023-10-09T11:43:02;100881.97;;;17.32;50.28
59272;BME280;45043;51.068;7.026;2023-10-09T11:46:08;100884.59;;;17.20;50.49
59272;BME280;45043;51.068;7.026;2023-10-09T11:49:11;100884.09;;;17.12;50.15
59272;BME280;45043;51.068;7.026;2023-10-09T11:52:20;100875.06;;;17.06;49.91
59272;BME280;45043;51.068;7.026;2023-10-09T11:55:36;100876.03;;;17.12;50.39
59272;BME280;45043;51.068;7.026;2023-10-09T11:58:37;100869.78;;;17.18;50.21
59272;BME280;45043;51.068;7.026;2023-10-09T12:01:46;100867.56;;;17.15;49.65
59272;BME280;45043;51.068;7.026;2023-10-09T12:04:54;100879.59;;;17.24;50.37
59272;BME280;45043;51.068;7.026;2023-10-09T12:07:58;100869.03;;;17.11;50.50
59272;BME280;45043;51.068;7.026;2023-10-09T12:11:03;100869.91;;;17.23;50.55
59272;BME280;45043;51.068;7.026;2023-10-09T12:14:04;100879.50;;;17.31;49.89
59272;BME280;45043;51.068;7.026;2023-10-09T12:17:06;100876.59;;;17.32;50.20
59272;BME280;45043;51.068;7.026;2023-10-09T12:20:08;100859.66;;;17.43;50.07
59272;BME280;45043;51.068;7.026;2023-10-09T12:23:14;100871.69;;;17.53;49.55
59272;BME280;45043;51.068;7.026;2023-10-09T12:26:16;100869.94;;;17.58;49.71
59272;BME280;45043;51.068;7.026;2023-10-09T12:29:17;100861.91;;;17.58;49.53
59272;BME280;45043;51.068;7.026;2023-10-09T12:32:20;100863.28;;;17.61;49.96
59272;BME280;45043;51.068;7.026;2023-10-09T12:35:21;100864.78;;;17.57;49.76
59272;BME280;45043;51.068;7.026;2023-10-09T12:38:24;100867.47;;;17.57;50.21
59272;BME280;45043;51.068;7.026;2023-10-09T12:41:32;100849.94;;;17.54;49.65
59272;BME280;45043;51.068;7.026;2023-10-09T12:44:36;100855.22;;;17.49;49.75
59272;BME280;45043;51.068;7.026;2023-10-09T12:47:39;100847.88;;;17.44;50.44
59272;BME280;45043;51.068;7.026;2023-10-09T12:50:43;100840.84;;;17.32;50.38
59272;BME280;45043;51.068;7.026;2023-10-09T12:53:45;100842.72;;;17.31;50.23
59272;BME280;45043;51.068;7.026;2023-10-09T12:56:49;100840.25;;;17.30;50.22
59272;BME280;45043;51.068;7.026;2023-10-09T12:59:50;100833.84;;;17.31;49.98
59272;BME280;45043;51.068;7.026;2023-10-09T13:02:51;100847.25;;;17.31;50.32
59272;BME280;45043;51.068;7.026;2023-10-09T13:05:53;100841.06;;;17.30;50.13
59272;BME280;45043;51.068;7.026;2023-10-09T13:08:55;100857.19;;;17.30;50.71
59272;BME280;45043;51.068;7.026;2023-10-09T13:12:00;100858.81;;;17.31;50.54
59272;BME280;45043;51.068;7.026;2023-10-09T13:15:01;100856.28;;;17.36;50.76
59272;BME280;45043;51.068;7.026;2023-10-09T13:18:02;100861.66;;;17.36;50.51
59272;BME280;45043;51.068;7.026;2023-10-09T13:21:03;100857.78;;;17.32;50.79
59272;BME280;45043;51.068;7.026;2023-10-09T13:24:04;100848.53;;;17.28;50.78
59272;BME280;45043;51.068;7.026;2023-10-09T13:27:05;100871.69;;;17.29;50.30
59272;BME280;45043;51.068;7.026;2023-10-09T13:30:10;100863.03;;;17.27;50.80
59272;BME280;45043;51.068;7.026;2023-10-09T13:33:22;100859.88;;;17.30;51.02
59272;BME280;45043;51.068;7.026;2023-10-09T13:36:23;100861.03;;;17.34;51.21
59272;BME280;45043;51.068;7.026;2023-10-09T13:39:27;100858.72;;;17.38;51.27
59272;BME280;45043;51.068;7.026;2023-10-09T13:42:31;100867.03;;;17.36;51.38
59272;BME280;45043;51.068;7.026;2023-10-09T13:45:32;100855.09;;;17.32;51.22
59272;BME280;45043;51.068;7.026;2023-10-09T13:48:34;100850.91;;;17.36;51.11
59272;BME280;45043;51.068;7.026;2023-10-09T13:51:42;100851.47;;;17.50;50.81
59272;BME280;45043;51.068;7.026;2023-10-09T13:54:46;100851.25;;;17.63;50.79
59272;BME280;45043;51.068;7.026;2023-10-09T13:57:50;100863.38;;;18.01;50.44
59272;BME280;45043;51.068;7.026;2023-10-09T14:00:50;100874.44;;;18.28;49.39
59272;BME280;45043;51.068;7.026;2023-10-09T14:03:55;100862.03;;;18.27;49.14
59272;BME280;45043;51.068;7.026;2023-10-09T14:06:57;100847.66;;;18.33;49.04
59272;BME280;45043;51.068;7.026;2023-10-09T14:09:57;100858.69;;;18.49;48.62
59272;BME280;45043;51.068;7.026;2023-10-09T14:13:07;100845.66;;;18.57;48.77
59272;BME280;45043;51.068;7.026;2023-10-09T14:16:12;100842.66;;;18.82;47.84
59272;BME280;45043;51.068;7.026;2023-10-09T14:19:25;100846.59;;;19.08;47.66
59272;BME280;45043;51.068;7.026;2023-10-09T14:22:27;100849.44;;;19.35;47.23
59272;BME280;45043;51.068;7.026;2023-10-09T14:25:30;100870.44;;;19.33;46.77
59272;BME280;45043;51.068;7.026;2023-10-09T14:28:32;100858.84;;;19.33;46.80
59272;BME280;45043;51.068;7.026;2023-10-09T14:31:32;100865.97;;;19.56;46.46
59272;BME280;45043;51.068;7.026;2023-10-09T14:34:43;100853.81;;;19.36;46.54
59272;BME280;45043;51.068;7.026;2023-10-09T14:37:50;100859.00;;;19.09;47.63
59272;BME280;45043;51.068;7.026;2023-10-09T14:40:52;100846.56;;;18.91;47.32
59272;BME280;45043;51.068;7.026;2023-10-09T14:43:58;100854.38;;;18.76;48.05
59272;BME280;45043;51.068;7.026;2023-10-09T14:46:59;100828.25;;;18.88;47.79
59272;BME280;45043;51.068;7.026;2023-10-09T14:50:00;100846.28;;;19.05;47.27
59272;BME280;45043;51.068;7.026;2023-10-09T14:53:07;100836.56;;;19.04;47.50
59272;BME280;45043;51.068;7.026;2023-10-09T14:56:08;100850.69;;;19.11;46.86
59272;BME280;45043;51.068;7.026;2023-10-09T14:59:10;100833.56;;;19.00;47.25
59272;BME280;45043;51.068;7.026;2023-10-09T15:02:11;100840.66;;;19.23;46.84
59272;BME280;45043;51.068;7.026;2023-10-09T15:05:15;100833.69;;;19.61;46.17
59272;BME280;45043;51.068;7.026;2023-10-09T15:08:16;100833.06;;;20.91;43.51
59272;BME280;45043;51.068;7.026;2023-10-09T15:11:21;100821.03;;;22.71;39.97
59272;BME280;45043;51.068;7.026;2023-10-09T15:14:23;100810.75;;;24.20;36.97
59272;BME280;45043;51.068;7.026;2023-10-09T15:17:25;100811.09;;;24.53;36.39
59272;BME280;45043;51.068;7.026;2023-10-09T15:20:26;100828.38;;;23.07;38.78
59272;BME280;45043;51.068;7.026;2023-10-09T15:23:28;100829.47;;;22.02;40.63
59272;BME280;45043;51.068;7.026;2023-10-09T15:26:29;100819.00;;;21.58;41.42
59272;BME280;45043;51.068;7.026;2023-10-09T15:29:33;100816.41;;;21.78;41.38
59272;BME280;45043;51.068;7.026;2023-10-09T15:32:34;100835.41;;;21.46;41.74
59272;BME280;45043;51.068;7.026;2023-10-09T15:35:35;100837.47;;;20.97;42.39
59272;BME280;45043;51.068;7.026;2023-10-09T15:38:36;100844.44;;;20.93;43.09
59272;BME280;45043;51.068;7.026;2023-10-09T15:41:40;100840.56;;;21.48;41.99
59272;BME280;45043;51.068;7.026;2023-10-09T15:44:42;100830.13;;;22.24;40.53
59272;BME280;45043;51.068;7.026;2023-10-09T15:47:43;100830.75;;;22.52;39.81
59272;BME280;45043;51.068;7.026;2023-10-09T15:50:45;100842.19;;;22.74;39.42
59272;BME280;45043;51.068;7.026;2023-10-09T15:53:49;100847.59;;;22.85;39.43
59272;BME280;45043;51.068;7.026;2023-10-09T15:56:52;100841.66;;;22.83;39.46
59272;BME280;45043;51.068;7.026;2023-10-09T15:59:55;100840.41;;;22.22;40.15
59272;BME280;45043;51.068;7.026;2023-10-09T16:02:56;100837.00;;;21.10;42.58
59272;BME280;45043;51.068;7.026;2023-10-09T16:05:58;100852.06;;;20.25;44.19
59272;BME280;45043;51.068;7.026;2023-10-09T16:09:00;100849.81;;;19.56;45.83
59272;BME280;45043;51.068;7.026;2023-10-09T16:12:01;100846.28;;;19.05;46.72
59272;BME280;45043;51.068;7.026;2023-10-09T16:15:02;100841.69;;;18.60;47.57
59272;BME280;45043;51.068;7.026;2023-10-09T16:18:05;100851.41;;;18.21;48.69
59272;BME280;45043;51.068;7.026;2023-10-09T16:21:06;100860.81;;;17.94;49.33